createdAt,value
2023-04-02T00:00:23.941Z,232.03
2023-04-02T00:04:22.437Z,229.12
2023-04-02T00:07:34.305Z,238.40
2023-04-02T00:10:50.710Z,272.74
2023-04-02T00:13:57.419Z,247.31
2023-04-02T00:17:07.597Z,236.27
2023-04-02T00:20:23.057Z,227.90
2023-04-02T00:23:29.666Z,237.21
2023-04-02T00:26:41.573Z,249.71
2023-04-02T00:29:53.052Z,299.16
2023-04-02T00:33:00.980Z,323.70
2023-04-02T00:36:12.170Z,309.97
2023-04-02T00:39:27.496Z,266.82
2023-04-02T00:42:34.625Z,254.84
2023-04-02T00:45:51.309Z,251.62
2023-04-02T00:49:08.264Z,266.51
2023-04-02T00:52:25.202Z,280.51
2023-04-02T00:55:41.975Z,278.72
2023-04-02T00:58:54.864Z,289.52
2023-04-02T01:02:22.840Z,280.55
2023-04-02T01:05:29.920Z,280.04
2023-04-02T01:08:59.753Z,276.48
2023-04-02T01:12:47.245Z,275.06
2023-04-02T01:16:07.716Z,275.60
2023-04-02T01:19:52.875Z,273.23
2023-04-02T01:23:10.373Z,274.26
2023-04-02T01:26:48.222Z,268.06
2023-04-02T01:30:05.474Z,261.04
2023-04-02T01:33:12.719Z,265.99
2023-04-02T01:36:34.351Z,268.40
2023-04-02T01:40:17.960Z,272.22
2023-04-02T01:43:40.148Z,270.94
2023-04-02T01:46:52.762Z,277.01
2023-04-02T01:50:06.239Z,287.14
2023-04-02T01:53:18.863Z,304.06
2023-04-02T01:56:26.018Z,299.80
2023-04-02T01:59:36.947Z,286.16
2023-04-02T02:02:54.506Z,288.00
2023-04-02T02:06:04.543Z,293.93
2023-04-02T02:09:21.445Z,316.73
2023-04-02T02:12:28.605Z,340.42
2023-04-02T02:15:39.400Z,334.85
2023-04-02T02:18:54.337Z,314.75
2023-04-02T02:22:12.486Z,315.79
2023-04-02T02:25:24.040Z,307.50
2023-04-02T02:28:36.707Z,318.05
2023-04-02T02:31:48.931Z,303.49
2023-04-02T02:35:11.520Z,285.78
2023-04-02T02:38:54.098Z,273.29
2023-04-02T02:42:27.818Z,270.10
2023-04-02T02:45:42.249Z,266.20
2023-04-02T02:48:49.748Z,255.85
2023-04-02T02:52:09.643Z,240.88
2023-04-02T02:55:32.859Z,226.85
2023-04-02T02:58:47.020Z,223.90
2023-04-02T03:02:09.981Z,214.66
2023-04-02T03:05:22.213Z,213.60
2023-04-02T03:08:40.670Z,216.53
2023-04-02T03:12:03.037Z,184.75
2023-04-02T03:15:26.316Z,169.44
2023-04-02T03:18:49.288Z,175.65
2023-04-02T03:22:08.840Z,171.14
2023-04-02T03:25:37.433Z,166.14
2023-04-02T03:28:53.338Z,164.71
2023-04-02T03:32:10.700Z,165.01
2023-04-02T03:35:31.894Z,160.16
2023-04-02T03:38:48.651Z,161.11
2023-04-02T03:42:08.608Z,164.02
2023-04-02T03:45:25.426Z,160.94
2023-04-02T03:48:44.094Z,162.38
2023-04-02T03:52:03.704Z,160.73
2023-04-02T03:55:20.798Z,164.22
2023-04-02T03:58:44.232Z,166.38
2023-04-02T04:02:01.857Z,165.38
2023-04-02T04:05:29.613Z,163.95
2023-04-02T04:08:51.067Z,174.12
2023-04-02T04:12:14.090Z,173.22
2023-04-02T04:15:32.142Z,190.51
2023-04-02T04:18:53.113Z,183.46
2023-04-02T04:22:14.468Z,202.88
2023-04-02T04:25:30.108Z,195.32
2023-04-02T04:29:00.770Z,184.21
2023-04-02T04:32:32.313Z,166.34
2023-04-02T04:35:54.650Z,160.60
2023-04-02T04:39:14.796Z,161.50
2023-04-02T04:42:33.111Z,160.31
2023-04-02T04:45:51.845Z,165.20
2023-04-02T04:49:14.342Z,166.63
2023-04-02T04:52:28.955Z,173.74
2023-04-02T04:55:43.267Z,164.35
2023-04-02T04:58:59.713Z,156.95
2023-04-02T05:02:17.707Z,168.20
2023-04-02T05:05:34.374Z,171.98
2023-04-02T05:08:52.197Z,155.89
2023-04-02T05:12:15.164Z,148.84
2023-04-02T05:15:32.823Z,150.57
2023-04-02T05:18:50.746Z,147.81
2023-04-02T05:22:15.826Z,145.38
2023-04-02T05:25:31.460Z,144.64
2023-04-02T05:28:52.026Z,154.91
2023-04-02T05:32:09.788Z,162.15
2023-04-02T05:35:23.929Z,179.62
2023-04-02T05:38:39.953Z,118.61
2023-04-02T05:41:49.588Z,93.87
2023-04-02T05:45:26.183Z,87.33
2023-04-02T05:48:43.562Z,88.17
2023-04-02T05:52:01.881Z,84.93
2023-04-02T05:55:39.349Z,73.34
2023-04-02T05:58:54.254Z,54.28
2023-04-02T06:02:23.430Z,49.72
2023-04-02T06:05:41.057Z,46.89
2023-04-02T06:09:01.096Z,39.04
2023-04-02T06:12:26.508Z,36.22
2023-04-02T06:15:36.672Z,35.03
2023-04-02T06:18:49.945Z,37.32
2023-04-02T06:22:11.518Z,40.35
2023-04-02T06:25:28.723Z,41.26
2023-04-02T06:28:49.304Z,44.62
2023-04-02T06:32:02.917Z,44.44
2023-04-02T06:35:16.115Z,41.57
2023-04-02T06:38:34.160Z,40.22
2023-04-02T06:41:40.911Z,40.07
2023-04-02T06:45:17.408Z,43.95
2023-04-02T06:48:37.362Z,41.22
2023-04-02T06:51:48.644Z,35.37
2023-04-02T06:54:54.670Z,30.81
2023-04-02T06:58:01.959Z,27.92
2023-04-02T07:01:18.140Z,28.88
2023-04-02T07:04:26.605Z,33.80
2023-04-02T07:07:33.818Z,28.92
2023-04-02T07:10:43.238Z,23.85
2023-04-02T07:13:50.452Z,22.99
2023-04-02T07:17:00.462Z,22.03
2023-04-02T07:20:07.089Z,21.70
2023-04-02T07:23:16.962Z,21.85
2023-04-02T07:26:28.570Z,25.71
2023-04-02T07:29:35.170Z,32.86
2023-04-02T07:32:43.679Z,36.92
2023-04-02T07:35:56.287Z,33.37
2023-04-02T07:39:02.244Z,34.04
2023-04-02T07:42:09.038Z,39.82
2023-04-02T07:45:15.920Z,43.08
2023-04-02T07:48:25.246Z,35.18
2023-04-02T07:51:31.151Z,48.78
2023-04-02T07:54:38.671Z,52.07
2023-04-02T07:57:53.554Z,49.06
2023-04-02T08:01:00.545Z,49.49
2023-04-02T08:04:10.181Z,44.30
2023-04-02T08:07:17.211Z,66.58
2023-04-02T08:10:23.451Z,69.20
2023-04-02T08:13:30.181Z,52.91
2023-04-02T08:16:49.153Z,44.78
2023-04-02T08:20:01.467Z,38.93
2023-04-02T08:23:08.904Z,40.80
2023-04-02T08:26:22.251Z,48.81
2023-04-02T08:29:32.365Z,56.34
2023-04-02T08:32:41.326Z,47.48
2023-04-02T08:35:50.866Z,40.29
2023-04-02T08:38:57.666Z,37.23
2023-04-02T08:42:21.282Z,32.75
2023-04-02T08:45:50.392Z,25.15
2023-04-02T08:49:04.091Z,23.61
2023-04-02T08:52:28.075Z,20.85
2023-04-02T08:55:48.007Z,21.63
2023-04-02T08:59:00.824Z,27.05
2023-04-02T09:02:32.070Z,36.15
2023-04-02T09:05:46.124Z,62.50
2023-04-02T09:09:00.528Z,76.01
2023-04-02T09:12:10.212Z,77.85
2023-04-02T09:15:32.045Z,78.90
2023-04-02T09:18:41.821Z,72.10
2023-04-02T09:22:09.241Z,70.13
2023-04-02T09:25:22.901Z,75.75
2023-04-02T09:28:30.456Z,86.75
2023-04-02T09:31:45.277Z,76.82
2023-04-02T09:34:51.319Z,70.81
2023-04-02T09:38:24.666Z,64.72
2023-04-02T09:41:37.796Z,85.03
2023-04-02T09:44:44.601Z,87.52
2023-04-02T09:47:52.061Z,87.36
2023-04-02T09:51:17.656Z,80.80
2023-04-02T09:54:23.536Z,90.78
2023-04-02T09:57:33.722Z,84.54
2023-04-02T10:00:42.195Z,89.04
2023-04-02T10:03:49.282Z,104.25
2023-04-02T10:06:58.212Z,110.30
2023-04-02T10:10:21.585Z,128.35
2023-04-02T10:13:36.725Z,115.67
2023-04-02T10:16:51.348Z,104.43
2023-04-02T10:20:06.603Z,127.35
2023-04-02T10:23:20.351Z,98.15
2023-04-02T10:26:51.399Z,104.18
2023-04-02T10:30:19.406Z,100.57
2023-04-02T10:33:36.124Z,91.52
2023-04-02T10:36:58.305Z,105.17
2023-04-02T10:40:17.295Z,107.88
2023-04-02T10:44:20.242Z,80.02
2023-04-02T10:47:45.443Z,101.91
2023-04-02T10:51:03.356Z,85.18
2023-04-02T10:54:37.327Z,89.13
2023-04-02T10:57:46.513Z,112.09
2023-04-02T11:01:01.650Z,118.13
2023-04-02T11:04:25.203Z,124.61
2023-04-02T11:07:41.931Z,121.93
2023-04-02T11:10:56.247Z,114.64
2023-04-02T11:14:09.781Z,1193.20
2023-04-02T11:17:20.964Z,572.55
2023-04-02T11:21:31.801Z,552.12
2023-04-02T11:24:48.630Z,624.20
2023-04-02T11:27:55.693Z,247.57
2023-04-02T11:31:03.330Z,238.73
2023-04-02T11:34:09.634Z,314.63
2023-04-02T11:37:38.544Z,425.63
2023-04-02T11:40:54.992Z,276.45
2023-04-02T11:44:05.742Z,586.76
2023-04-02T11:47:26.619Z,416.44
2023-04-02T11:50:36.290Z,195.05
2023-04-02T11:53:46.578Z,187.99
2023-04-02T11:57:08.232Z,245.89
2023-04-02T12:00:53.289Z,165.63
2023-04-02T12:04:53.240Z,753.04
2023-04-02T12:08:27.678Z,192.41
2023-04-02T12:11:41.761Z,144.71
2023-04-02T12:14:51.505Z,148.37
2023-04-02T12:18:15.836Z,176.60
2023-04-02T12:21:29.889Z,250.80
2023-04-02T12:24:36.896Z,187.84
2023-04-02T12:27:46.729Z,226.41
2023-04-02T12:31:06.170Z,269.85
2023-04-02T12:34:19.862Z,309.23
2023-04-02T12:37:30.932Z,311.16
2023-04-02T12:40:37.170Z,230.57
2023-04-02T12:43:46.616Z,279.01
2023-04-02T12:46:55.727Z,261.82
2023-04-02T12:50:06.073Z,208.68
2023-04-02T12:53:27.335Z,239.94
2023-04-02T12:56:34.201Z,274.21
2023-04-02T12:59:46.688Z,299.78
2023-04-02T13:02:55.910Z,351.15
2023-04-02T13:06:02.357Z,359.93
2023-04-02T13:09:29.701Z,197.93
2023-04-02T13:12:39.982Z,278.04
2023-04-02T13:16:03.064Z,268.01
2023-04-02T13:19:33.839Z,270.88
2023-04-02T13:22:40.590Z,328.77
2023-04-02T13:25:46.572Z,427.21
2023-04-02T13:29:04.123Z,421.92
2023-04-02T13:32:16.472Z,228.86
2023-04-02T13:35:23.209Z,293.01
2023-04-02T13:38:29.181Z,474.82
2023-04-02T13:41:44.349Z,287.22
2023-04-02T13:44:50.337Z,372.35
2023-04-02T13:48:01.442Z,561.73
2023-04-02T13:51:07.516Z,408.66
2023-04-02T13:54:23.998Z,649.89
2023-04-02T13:57:29.944Z,479.53
2023-04-02T14:00:41.289Z,345.62
2023-04-02T14:03:50.425Z,205.12
2023-04-02T14:07:37.189Z,194.93
2023-04-02T14:11:05.989Z,154.90
2023-04-02T14:14:48.835Z,135.36
2023-04-02T14:18:18.406Z,145.40
2023-04-02T14:21:47.773Z,141.02
2023-04-02T14:25:10.027Z,148.90
2023-04-02T14:28:38.333Z,165.68
2023-04-02T14:31:55.813Z,143.62
2023-04-02T14:35:17.209Z,143.48
2023-04-02T14:38:42.306Z,136.04
2023-04-02T14:42:02.629Z,177.30
2023-04-02T14:45:21.102Z,197.69
2023-04-02T14:48:51.486Z,127.89
2023-04-02T14:52:06.983Z,138.08
2023-04-02T14:55:34.291Z,134.23
2023-04-02T14:58:48.834Z,143.26
2023-04-02T15:02:04.683Z,134.97
2023-04-02T15:05:23.236Z,148.38
2023-04-02T15:08:36.395Z,172.52
2023-04-02T15:11:54.362Z,139.42
2023-04-02T15:15:24.333Z,137.29
2023-04-02T15:18:35.776Z,129.22
2023-04-02T15:22:09.274Z,168.57
2023-04-02T15:25:32.682Z,142.08
2023-04-02T15:28:52.120Z,175.97
2023-04-02T15:32:15.372Z,168.12
2023-04-02T15:35:39.050Z,253.86
2023-04-02T15:38:50.673Z,195.57
2023-04-02T15:42:16.433Z,232.26
2023-04-02T15:45:43.896Z,174.36
2023-04-02T15:49:20.438Z,162.69
2023-04-02T15:52:39.510Z,160.98
2023-04-02T15:55:57.594Z,118.50
2023-04-02T15:59:42.656Z,94.23
2023-04-02T16:03:23.228Z,97.35
2023-04-02T16:06:48.336Z,91.25
2023-04-02T16:10:15.779Z,78.97
2023-04-02T16:13:32.855Z,78.17
2023-04-02T16:16:43.285Z,217.07
2023-04-02T16:20:00.015Z,137.05
2023-04-02T16:23:16.156Z,101.14
2023-04-02T16:26:52.444Z,349.71
2023-04-02T16:30:39.845Z,353.55
2023-04-02T16:34:07.360Z,251.75
2023-04-02T16:37:31.862Z,276.41
2023-04-02T16:41:00.541Z,482.74
2023-04-02T16:44:35.371Z,839.10
2023-04-02T16:48:06.234Z,777.02
2023-04-02T16:51:24.259Z,374.28
2023-04-02T16:54:47.833Z,328.15
2023-04-02T16:58:17.355Z,211.31
2023-04-02T17:01:43.462Z,153.64
2023-04-02T17:05:08.081Z,124.28
2023-04-02T17:08:26.192Z,133.02
2023-04-02T17:11:47.731Z,236.85
2023-04-02T17:15:03.241Z,270.01
2023-04-02T17:18:21.162Z,194.08
2023-04-02T17:21:30.655Z,205.94
2023-04-02T17:24:47.443Z,224.16
2023-04-02T17:27:59.435Z,189.92
2023-04-02T17:31:16.692Z,163.86
2023-04-02T17:34:25.931Z,127.14
2023-04-02T17:37:46.147Z,196.91
2023-04-02T17:41:08.334Z,115.63
2023-04-02T17:44:59.315Z,191.23
2023-04-02T17:48:18.341Z,284.63
2023-04-02T17:51:38.509Z,177.73
2023-04-02T17:55:00.841Z,277.37
2023-04-02T17:58:31.657Z,281.90
2023-04-02T18:01:57.572Z,166.43
2023-04-02T18:05:25.265Z,196.03
2023-04-02T18:08:52.267Z,213.35
2023-04-02T18:12:24.124Z,259.48
2023-04-02T18:16:05.085Z,220.95
2023-04-02T18:19:20.693Z,210.52
2023-04-02T18:22:41.296Z,520.50
2023-04-02T18:26:05.683Z,204.05
2023-04-02T18:29:33.227Z,244.35
2023-04-02T18:33:07.626Z,147.06
2023-04-02T18:36:31.407Z,190.02
2023-04-02T18:40:01.792Z,185.01
2023-04-02T18:43:29.338Z,240.80
2023-04-02T18:46:52.390Z,282.47
2023-04-02T18:50:19.368Z,286.08
2023-04-02T18:53:32.392Z,238.53
2023-04-02T18:56:43.465Z,226.53
2023-04-02T19:00:00.597Z,264.39
2023-04-02T19:03:21.763Z,311.84
2023-04-02T19:06:40.101Z,349.06
2023-04-02T19:09:56.134Z,408.11
2023-04-02T19:13:03.419Z,281.37
2023-04-02T19:16:51.101Z,290.46
2023-04-02T19:20:15.556Z,284.07
2023-04-02T19:23:47.401Z,303.09
2023-04-02T19:27:09.846Z,1056.76
2023-04-02T19:30:42.114Z,805.72
2023-04-02T19:33:58.480Z,505.47
2023-04-02T19:37:18.249Z,393.44
2023-04-02T19:40:45.974Z,209.88
2023-04-02T19:43:55.395Z,315.06
2023-04-02T19:47:03.097Z,335.25
2023-04-02T19:50:11.732Z,206.33
2023-04-02T19:53:20.133Z,259.43
2023-04-02T19:56:27.157Z,283.08
2023-04-02T19:59:37.226Z,185.61
2023-04-02T20:02:43.072Z,351.62
2023-04-02T20:05:50.100Z,242.37
2023-04-02T20:08:56.476Z,269.39
2023-04-02T20:12:03.657Z,357.46
2023-04-02T20:15:14.311Z,193.14
2023-04-02T20:18:21.811Z,169.75
2023-04-02T20:21:27.885Z,202.09
2023-04-02T20:24:37.921Z,202.97
2023-04-02T20:27:48.195Z,211.80
2023-04-02T20:31:09.832Z,147.06
2023-04-02T20:34:16.849Z,145.84
2023-04-02T20:37:24.711Z,104.75
2023-04-02T20:40:33.285Z,87.40
2023-04-02T20:43:43.582Z,90.35
2023-04-02T20:46:53.498Z,99.43
2023-04-02T20:50:02.639Z,115.68
2023-04-02T20:53:09.157Z,94.50
2023-04-02T20:56:23.554Z,99.59
2023-04-02T20:59:30.117Z,98.70
2023-04-02T21:02:40.214Z,113.29
2023-04-02T21:05:47.762Z,96.44
2023-04-02T21:08:56.073Z,93.55
2023-04-02T21:12:01.900Z,90.61
2023-04-02T21:15:12.640Z,92.13
2023-04-02T21:18:21.604Z,83.03
2023-04-02T21:21:29.076Z,81.39
2023-04-02T21:24:35.702Z,83.05
2023-04-02T21:27:42.720Z,80.02
2023-04-02T21:30:49.541Z,78.80
2023-04-02T21:34:02.934Z,68.62
2023-04-02T21:37:08.815Z,79.87
2023-04-02T21:40:15.604Z,83.20
2023-04-02T21:43:21.626Z,89.30
2023-04-02T21:46:32.464Z,90.81
2023-04-02T21:49:41.079Z,81.07
2023-04-02T21:52:47.740Z,71.50
2023-04-02T21:55:53.751Z,64.64
2023-04-02T21:59:02.454Z,73.27
2023-04-02T22:02:08.355Z,66.89
2023-04-02T22:05:18.253Z,67.41
2023-04-02T22:08:25.860Z,60.82
2023-04-02T22:11:37.506Z,61.93
2023-04-02T22:14:43.297Z,63.02
2023-04-02T22:17:50.196Z,68.73
2023-04-02T22:21:01.988Z,57.38
2023-04-02T22:24:14.377Z,59.91
2023-04-02T22:27:20.307Z,57.43
2023-04-02T22:30:30.156Z,63.48
2023-04-02T22:33:37.363Z,63.79
2023-04-02T22:36:46.721Z,65.41
2023-04-02T22:39:52.582Z,65.66
2023-04-02T22:43:00.292Z,67.28
2023-04-02T22:46:06.816Z,75.64
2023-04-02T22:49:19.552Z,66.57
2023-04-02T22:52:28.214Z,64.55
2023-04-02T22:55:34.996Z,59.84
2023-04-02T22:58:41.896Z,64.85
2023-04-02T23:01:48.588Z,71.73
2023-04-02T23:04:54.502Z,74.40
2023-04-02T23:08:03.863Z,72.65
2023-04-02T23:11:12.879Z,77.05
2023-04-02T23:14:19.607Z,78.79
2023-04-02T23:17:25.675Z,73.92
2023-04-02T23:20:32.486Z,76.17
2023-04-02T23:23:41.173Z,72.88
2023-04-02T23:26:48.093Z,71.47
2023-04-02T23:29:54.965Z,69.70
2023-04-02T23:33:03.461Z,67.85
2023-04-02T23:36:12.103Z,65.19
2023-04-02T23:39:23.252Z,64.05
2023-04-02T23:42:29.092Z,63.59
2023-04-02T23:45:35.877Z,65.35
2023-04-02T23:48:42.613Z,74.05
2023-04-02T23:51:49.629Z,73.09
2023-04-02T23:54:58.075Z,75.94
2023-04-02T23:58:04.858Z,75.83
